sensor_id;sensor_type;location;lat;lon;timestamp;pressure;altitude;pressure_sealevel;temperature;humidity
65127;BME280;51927;49.080;19.652;2023-02-03T00:00:06;94698.22;;;21.97;43.43
65127;BME280;51927;49.080;19.652;2023-02-03T00:00:11;94697.41;;;21.96;43.31
65127;BME280;51927;49.080;19.652;2023-02-03T00:00:16;94700.09;;;21.96;43.48
65127;BME280;51927;49.080;19.652;2023-02-03T00:00:22;94693.97;;;21.96;43.47
65127;BME280;51927;49.080;19.652;2023-02-03T00:00:27;94699.31;;;21.96;43.47
65127;BME280;51927;49.080;19.652;2023-02-03T00:00:34;94697.72;;;21.95;43.41
65127;BME280;51927;49.080;19.652;2023-02-03T00:00:39;94706.22;;;21.97;43.47
65127;BME280;51927;49.080;19.652;2023-02-03T00:00:45;94703.56;;;21.97;43.52
65127;BME280;51927;49.080;19.652;2023-02-03T00:00:50;94703.56;;;21.97;43.51
65127;BME280;51927;49.080;19.652;2023-02-03T00:00:55;94708.09;;;21.96;43.39
65127;BME280;51927;49.080;19.652;2023-02-03T00:01:00;94701.19;;;21.95;43.63
65127;BME280;51927;49.080;19.652;2023-02-03T00:01:05;94701.19;;;21.95;43.51
65127;BME280;51927;49.080;19.652;2023-02-03T00:01:11;94703.84;;;21.95;43.28
65127;BME280;51927;49.080;19.652;2023-02-03T00:01:16;94696.63;;;21.96;43.54
65127;BME280;51927;49.080;19.652;2023-02-03T00:01:21;94696.63;;;21.96;43.45
65127;BME280;51927;49.080;19.652;2023-02-03T00:01:27;94707.31;;;21.96;43.54
65127;BME280;51927;49.080;19.652;2023-02-03T00:01:32;94706.22;;;21.97;43.67
65127;BME280;51927;49.080;19.652;2023-02-03T00:01:38;94704.34;;;21.97;43.58
65127;BME280;51927;49.080;19.652;2023-02-03T00:01:43;94704.63;;;21.96;43.32
65127;BME280;51927;49.080;19.652;2023-02-03T00:01:48;94701.97;;;21.96;43.52
65127;BME280;51927;49.080;19.652;2023-02-03T00:01:53;94704.63;;;21.96;43.38
65127;BME280;51927;49.080;19.652;2023-02-03T00:01:58;94707.31;;;21.96;43.55
65127;BME280;51927;49.080;19.652;2023-02-03T00:02:04;94699.59;;;21.94;43.44
65127;BME280;51927;49.080;19.652;2023-02-03T00:02:09;94709.97;;;21.96;43.50
65127;BME280;51927;49.080;19.652;2023-02-03T00:02:14;94695.06;;;21.95;43.50
65127;BME280;51927;49.080;19.652;2023-02-03T00:02:19;94703.06;;;21.95;43.54
65127;BME280;51927;49.080;19.652;2023-02-03T00:02:24;94698.53;;;21.95;43.37
65127;BME280;51927;49.080;19.652;2023-02-03T00:02:29;94706.53;;;21.95;43.34
65127;BME280;51927;49.080;19.652;2023-02-03T00:02:35;94705.41;;;21.96;43.56
65127;BME280;51927;49.080;19.652;2023-02-03T00:02:40;94705.41;;;21.96;43.34
65127;BME280;51927;49.080;19.652;2023-02-03T00:02:45;94701.97;;;21.96;43.48
65127;BME280;51927;49.080;19.652;2023-02-03T00:02:50;94701.97;;;21.96;43.32
65127;BME280;51927;49.080;19.652;2023-02-03T00:02:55;94705.41;;;21.96;43.33
65127;BME280;51927;49.080;19.652;2023-02-03T00:03:01;94696.63;;;21.96;43.38
65127;BME280;51927;49.080;19.652;2023-02-03T00:03:06;94703.56;;;21.97;43.58
65127;BME280;51927;49.080;19.652;2023-02-03T00:03:11;94701.97;;;21.96;43.29
65127;BME280;51927;49.080;19.652;2023-02-03T00:03:16;94702.75;;;21.96;43.41
65127;BME280;51927;49.080;19.652;2023-02-03T00:03:22;94704.63;;;21.96;43.48
65127;BME280;51927;49.080;19.652;2023-02-03T00:03:27;94698.53;;;21.95;43.38
65127;BME280;51927;49.080;19.652;2023-02-03T00:03:32;94704.63;;;21.96;43.35
65127;BME280;51927;49.080;19.652;2023-02-03T00:03:37;94701.97;;;21.96;43.15
65127;BME280;51927;49.080;19.652;2023-02-03T00:03:43;94701.19;;;21.95;43.46
65127;BME280;51927;49.080;19.652;2023-02-03T00:03:48;94696.16;;;21.94;43.40
65127;BME280;51927;49.080;19.652;2023-02-03T00:03:53;94703.84;;;21.95;43.47
65127;BME280;51927;49.080;19.652;2023-02-03T00:03:58;94701.97;;;21.96;43.48
65127;BME280;51927;49.080;19.652;2023-02-03T00:04:03;94701.97;;;21.96;43.60
65127;BME280;51927;49.080;19.652;2023-02-03T00:04:09;94705.72;;;21.95;43.50
65127;BME280;51927;49.080;19.652;2023-02-03T00:04:14;94700.09;;;21.96;43.65
65127;BME280;51927;49.080;19.652;2023-02-03T00:04:20;94706.53;;;21.95;43.50
65127;BME280;51927;49.080;19.652;2023-02-03T00:04:25;94703.84;;;21.95;43.53
65127;BME280;51927;49.080;19.652;2023-02-03T00:04:30;94705.41;;;21.96;43.52
65127;BME280;51927;49.080;19.652;2023-02-03T00:04:35;94704.63;;;21.96;43.52
65127;BME280;51927;49.080;19.652;2023-02-03T00:04:40;94707.31;;;21.96;43.55
65127;BME280;51927;49.080;19.652;2023-02-03T00:04:45;94701.19;;;21.95;43.28
65127;BME280;51927;49.080;19.652;2023-02-03T00:04:51;94705.72;;;21.95;43.63
65127;BME280;51927;49.080;19.652;2023-02-03T00:04:56;94704.63;;;21.96;43.28
65127;BME280;51927;49.080;19.652;2023-02-03T00:05:01;94697.72;;;21.95;43.45
65127;BME280;51927;49.080;19.652;2023-02-03T00:05:07;94704.94;;;21.94;43.44
65127;BME280;51927;49.080;19.652;2023-02-03T00:05:12;94703.84;;;21.95;43.26
65127;BME280;51927;49.080;19.652;2023-02-03T00:05:18;94711.03;;;21.95;43.35
65127;BME280;51927;49.080;19.652;2023-02-03T00:05:23;94709.97;;;21.96;43.42
65127;BME280;51927;49.080;19.652;2023-02-03T00:05:28;94703.06;;;21.95;43.39
65127;BME280;51927;49.080;19.652;2023-02-03T00:05:35;94704.94;;;21.94;43.39
65127;BME280;51927;49.080;19.652;2023-02-03T00:05:41;94704.94;;;21.94;43.59
65127;BME280;51927;49.080;19.652;2023-02-03T00:05:46;94706.53;;;21.95;43.48
65127;BME280;51927;49.080;19.652;2023-02-03T00:05:51;94704.94;;;21.94;43.38
65127;BME280;51927;49.080;19.652;2023-02-03T00:05:57;94695.34;;;21.93;43.36
65127;BME280;51927;49.080;19.652;2023-02-03T00:06:04;94705.72;;;21.95;43.59
65127;BME280;51927;49.080;19.652;2023-02-03T00:06:09;94706.81;;;21.94;43.53
65127;BME280;51927;49.080;19.652;2023-02-03T00:06:14;94711.03;;;21.95;43.54
65127;BME280;51927;49.080;19.652;2023-02-03T00:06:20;94700.38;;;21.95;43.41
65127;BME280;51927;49.080;19.652;2023-02-03T00:06:25;94703.84;;;21.95;43.55
65127;BME280;51927;49.080;19.652;2023-02-03T00:06:31;94705.72;;;21.95;43.40
65127;BME280;51927;49.080;19.652;2023-02-03T00:06:36;94703.06;;;21.95;43.42
65127;BME280;51927;49.080;19.652;2023-02-03T00:06:41;94705.72;;;21.95;43.55
65127;BME280;51927;49.080;19.652;2023-02-03T00:06:47;94708.38;;;21.95;43.52
65127;BME280;51927;49.080;19.652;2023-02-03T00:06:52;94700.38;;;21.95;43.42
65127;BME280;51927;49.080;19.652;2023-02-03T00:06:58;94703.06;;;21.95;43.38
65127;BME280;51927;49.080;19.652;2023-02-03T00:07:03;94706.53;;;21.95;43.41
65127;BME280;51927;49.080;19.652;2023-02-03T00:07:08;94708.38;;;21.95;43.47
65127;BME280;51927;49.080;19.652;2023-02-03T00:07:15;94700.38;;;21.95;43.64
65127;BME280;51927;49.080;19.652;2023-02-03T00:07:20;94707.31;;;21.96;43.51
65127;BME280;51927;49.080;19.652;2023-02-03T00:07:26;94706.53;;;21.95;43.42
65127;BME280;51927;49.080;19.652;2023-02-03T00:07:31;94701.97;;;21.96;43.71
65127;BME280;51927;49.080;19.652;2023-02-03T00:07:36;94701.97;;;21.96;43.50
65127;BME280;51927;49.080;19.652;2023-02-03T00:07:42;94709.19;;;21.95;43.26
65127;BME280;51927;49.080;19.652;2023-02-03T00:07:48;94704.63;;;21.96;43.48
65127;BME280;51927;49.080;19.652;2023-02-03T00:07:53;94707.31;;;21.96;43.59
65127;BME280;51927;49.080;19.652;2023-02-03T00:07:58;94712.63;;;21.96;43.48
65127;BME280;51927;49.080;19.652;2023-02-03T00:08:04;94710.75;;;21.96;43.56
65127;BME280;51927;49.080;19.652;2023-02-03T00:08:10;94704.63;;;21.96;43.47
65127;BME280;51927;49.080;19.652;2023-02-03T00:08:16;94709.97;;;21.96;43.66
65127;BME280;51927;49.080;19.652;2023-02-03T00:08:22;94707.31;;;21.96;43.67
65127;BME280;51927;49.080;19.652;2023-02-03T00:08:28;94707.31;;;21.96;43.63
65127;BME280;51927;49.080;19.652;2023-02-03T00:08:34;94704.63;;;21.96;43.46
65127;BME280;51927;49.080;19.652;2023-02-03T00:08:39;94712.63;;;21.96;43.47
65127;BME280;51927;49.080;19.652;2023-02-03T00:08:45;94707.31;;;21.96;43.47
65127;BME280;51927;49.080;19.652;2023-02-03T00:08:54;94717.19;;;21.95;43.34
65127;BME280;51927;49.080;19.652;2023-02-03T00:09:00;94711.03;;;21.95;43.25
65127;BME280;51927;49.080;19.652;2023-02-03T00:09:05;94709.19;;;21.95;43.35
65127;BME280;51927;49.080;19.652;2023-02-03T00:09:11;94709.19;;;21.95;43.55
65127;BME280;51927;49.080;19.652;2023-02-03T00:09:16;94711.03;;;21.95;43.44
65127;BME280;51927;49.080;19.652;2023-02-03T00:09:21;94717.19;;;21.95;43.41
65127;BME280;51927;49.080;19.652;2023-02-03T00:09:27;94712.16;;;21.94;43.46
65127;BME280;51927;49.080;19.652;2023-02-03T00:09:32;94711.84;;;21.95;43.41
65127;BME280;51927;49.080;19.652;2023-02-03T00:09:37;94712.94;;;21.94;43.37
65127;BME280;51927;49.080;19.652;2023-02-03T00:09:42;94711.03;;;21.95;43.45
65127;BME280;51927;49.080;19.652;2023-02-03T00:09:48;94711.84;;;21.95;43.28
65127;BME280;51927;49.080;19.652;2023-02-03T00:09:54;94711.03;;;21.95;43.45
65127;BME280;51927;49.080;19.652;2023-02-03T00:09:59;94705.72;;;21.95;43.57
65127;BME280;51927;49.080;19.652;2023-02-03T00:10:05;94709.50;;;21.94;43.46
65127;BME280;51927;49.080;19.652;2023-02-03T00:10:10;94712.16;;;21.94;43.35
65127;BME280;51927;49.080;19.652;2023-02-03T00:10:16;94718.56;;;21.93;43.56
65127;BME280;51927;49.080;19.652;2023-02-03T00:10:25;94713.22;;;21.93;43.43
65127;BME280;51927;49.080;19.652;2023-02-03T00:10:30;94715.91;;;21.93;43.29
65127;BME280;51927;49.080;19.652;2023-02-03T00:10:36;94713.22;;;21.93;43.58
65127;BME280;51927;49.080;19.652;2023-02-03T00:10:42;94714.31;;;21.92;43.52
65127;BME280;51927;49.080;19.652;2023-02-03T00:10:47;94709.50;;;21.94;43.49
65127;BME280;51927;49.080;19.652;2023-02-03T00:10:52;94714.00;;;21.93;43.51
65127;BME280;51927;49.080;19.652;2023-02-03T00:10:58;94707.91;;;21.93;43.38
65127;BME280;51927;49.080;19.652;2023-02-03T00:11:04;94712.16;;;21.94;43.55
65127;BME280;51927;49.080;19.652;2023-02-03T00:11:09;94709.50;;;21.94;43.49
65127;BME280;51927;49.080;19.652;2023-02-03T00:11:14;94707.91;;;21.93;43.41
65127;BME280;51927;49.080;19.652;2023-02-03T00:11:19;94714.81;;;21.94;43.32
65127;BME280;51927;49.080;19.652;2023-02-03T00:11:25;94714.81;;;21.94;43.61
65127;BME280;51927;49.080;19.652;2023-02-03T00:11:30;94710.28;;;21.94;43.26
65127;BME280;51927;49.080;19.652;2023-02-03T00:11:35;94709.50;;;21.94;43.34
65127;BME280;51927;49.080;19.652;2023-02-03T00:11:41;94714.00;;;21.93;43.56
65127;BME280;51927;49.080;19.652;2023-02-03T00:11:46;94706.81;;;21.94;43.63
65127;BME280;51927;49.080;19.652;2023-02-03T00:11:52;94717.50;;;21.94;43.59
65127;BME280;51927;49.080;19.652;2023-02-03T00:11:57;94712.94;;;21.94;43.52
65127;BME280;51927;49.080;19.652;2023-02-03T00:12:03;94711.34;;;21.93;43.46
65127;BME280;51927;49.080;19.652;2023-02-03T00:12:08;94714.81;;;21.94;43.42
65127;BME280;51927;49.080;19.652;2023-02-03T00:12:13;94711.34;;;21.93;43.52
65127;BME280;51927;49.080;19.652;2023-02-03T00:12:19;94715.91;;;21.93;43.49
65127;BME280;51927;49.080;19.652;2023-02-03T00:12:24;94715.91;;;21.93;43.46
65127;BME280;51927;49.080;19.652;2023-02-03T00:12:29;94708.69;;;21.93;43.39
65127;BME280;51927;49.080;19.652;2023-02-03T00:12:34;94711.34;;;21.93;43.41
65127;BME280;51927;49.080;19.652;2023-02-03T00:12:39;94717.50;;;21.94;43.53
65127;BME280;51927;49.080;19.652;2023-02-03T00:12:45;94720.16;;;21.94;43.49
65127;BME280;51927;49.080;19.652;2023-02-03T00:12:50;94713.22;;;21.93;43.36
65127;BME280;51927;49.080;19.652;2023-02-03T00:13:00;94720.16;;;21.94;43.51
65127;BME280;51927;49.080;19.652;2023-02-03T00:13:06;94714.00;;;21.93;43.36
65127;BME280;51927;49.080;19.652;2023-02-03T00:13:11;94718.56;;;21.93;43.54
65127;BME280;51927;49.080;19.652;2023-02-03T00:13:17;94718.56;;;21.93;43.41
65127;BME280;51927;49.080;19.652;2023-02-03T00:13:23;94714.00;;;21.93;43.41
65127;BME280;51927;49.080;19.652;2023-02-03T00:13:29;94710.56;;;21.93;43.35
65127;BME280;51927;49.080;19.652;2023-02-03T00:13:35;94718.56;;;21.93;43.21
65127;BME280;51927;49.080;19.652;2023-02-03T00:13:40;94713.22;;;21.93;43.34
65127;BME280;51927;49.080;19.652;2023-02-03T00:13:45;94710.56;;;21.93;43.27
65127;BME280;51927;49.080;19.652;2023-02-03T00:13:50;94722.81;;;21.94;43.41
65127;BME280;51927;49.080;19.652;2023-02-03T00:13:56;94713.22;;;21.93;43.52
65127;BME280;51927;49.080;19.652;2023-02-03T00:14:01;94720.94;;;21.94;43.26
65127;BME280;51927;49.080;19.652;2023-02-03T00:14:06;94719.03;;;21.95;43.39
65127;BME280;51927;49.080;19.652;2023-02-03T00:14:12;94717.50;;;21.94;43.27
65127;BME280;51927;49.080;19.652;2023-02-03T00:14:17;94708.69;;;21.93;43.43
65127;BME280;51927;49.080;19.652;2023-02-03T00:14:22;94717.50;;;21.94;43.48
65127;BME280;51927;49.080;19.652;2023-02-03T00:14:27;94717.50;;;21.94;43.52
65127;BME280;51927;49.080;19.652;2023-02-03T00:14:32;94715.59;;;21.94;43.33
65127;BME280;51927;49.080;19.652;2023-02-03T00:14:38;94716.38;;;21.95;43.33
65127;BME280;51927;49.080;19.652;2023-02-03T00:14:43;94717.19;;;21.95;43.32
65127;BME280;51927;49.080;19.652;2023-02-03T00:14:48;94716.38;;;21.95;43.38
65127;BME280;51927;49.080;19.652;2023-02-03T00:14:53;94718.28;;;21.94;43.42
65127;BME280;51927;49.080;19.652;2023-02-03T00:14:58;94716.38;;;21.95;43.20
65127;BME280;51927;49.080;19.652;2023-02-03T00:15:04;94719.34;;;21.93;43.39
65127;BME280;51927;49.080;19.652;2023-02-03T00:15:09;94715.91;;;21.93;43.45
65127;BME280;51927;49.080;19.652;2023-02-03T00:15:14;94711.34;;;21.93;43.32
65127;BME280;51927;49.080;19.652;2023-02-03T00:15:19;94709.50;;;21.94;43.22
65127;BME280;51927;49.080;19.652;2023-02-03T00:15:27;94712.16;;;21.94;43.43
65127;BME280;51927;49.080;19.652;2023-02-03T00:15:32;94712.16;;;21.94;43.51
65127;BME280;51927;49.080;19.652;2023-02-03T00:15:37;94707.59;;;21.94;43.22
65127;BME280;51927;49.080;19.652;2023-02-03T00:15:42;94714.81;;;21.94;43.35
65127;BME280;51927;49.080;19.652;2023-02-03T00:15:47;94710.28;;;21.94;43.47
65127;BME280;51927;49.080;19.652;2023-02-03T00:15:52;94716.38;;;21.95;43.29
65127;BME280;51927;49.080;19.652;2023-02-03T00:15:58;94709.19;;;21.95;43.38
65127;BME280;51927;49.080;19.652;2023-02-03T00:16:05;94708.38;;;21.95;43.34
65127;BME280;51927;49.080;19.652;2023-02-03T00:16:11;94711.03;;;21.95;43.45
65127;BME280;51927;49.080;19.652;2023-02-03T00:16:16;94709.97;;;21.96;43.42
65127;BME280;51927;49.080;19.652;2023-02-03T00:16:21;94712.63;;;21.96;43.37
65127;BME280;51927;49.080;19.652;2023-02-03T00:16:26;94715.31;;;21.96;43.33
65127;BME280;51927;49.080;19.652;2023-02-03T00:16:31;94705.72;;;21.95;43.33
65127;BME280;51927;49.080;19.652;2023-02-03T00:16:36;94701.19;;;21.95;43.32
65127;BME280;51927;49.080;19.652;2023-02-03T00:16:42;94705.72;;;21.95;43.38
65127;BME280;51927;49.080;19.652;2023-02-03T00:16:47;94704.16;;;21.94;43.28
65127;BME280;51927;49.080;19.652;2023-02-03T00:16:52;94711.34;;;21.93;43.27
65127;BME280;51927;49.080;19.652;2023-02-03T00:16:57;94709.50;;;21.94;43.28
65127;BME280;51927;49.080;19.652;2023-02-03T00:17:03;94704.94;;;21.94;43.28
65127;BME280;51927;49.080;19.652;2023-02-03T00:17:08;94708.38;;;21.95;43.40
65127;BME280;51927;49.080;19.652;2023-02-03T00:17:13;94710.28;;;21.94;43.40
65127;BME280;51927;49.080;19.652;2023-02-03T00:17:19;94714.53;;;21.95;43.33
65127;BME280;51927;49.080;19.652;2023-02-03T00:17:24;94714.81;;;21.94;43.52
65127;BME280;51927;49.080;19.652;2023-02-03T00:17:29;94712.94;;;21.94;43.47
65127;BME280;51927;49.080;19.652;2023-02-03T00:17:34;94713.72;;;21.95;43.28
65127;BME280;51927;49.080;19.652;2023-02-03T00:17:40;94713.72;;;21.95;43.48
65127;BME280;51927;49.080;19.652;2023-02-03T00:17:45;94712.94;;;21.94;43.27
65127;BME280;51927;49.080;19.652;2023-02-03T00:17:50;94716.38;;;21.95;43.41
65127;BME280;51927;49.080;19.652;2023-02-03T00:17:55;94717.19;;;21.95;43.37
65127;BME280;51927;49.080;19.652;2023-02-03T00:18:00;94717.97;;;21.96;43.53
65127;BME280;51927;49.080;19.652;2023-02-03T00:18:05;94711.03;;;21.95;43.32
65127;BME280;51927;49.080;19.652;2023-02-03T00:18:11;94708.38;;;21.95;43.34
65127;BME280;51927;49.080;19.652;2023-02-03T00:18:16;94719.03;;;21.95;43.19
65127;BME280;51927;49.080;19.652;2023-02-03T00:18:21;94715.59;;;21.94;43.26
65127;BME280;51927;49.080;19.652;2023-02-03T00:18:27;94711.84;;;21.95;43.20
65127;BME280;51927;49.080;19.652;2023-02-03T00:18:32;94711.84;;;21.95;43.32
65127;BME280;51927;49.080;19.652;2023-02-03T00:18:37;94714.53;;;21.95;43.38
65127;BME280;51927;49.080;19.652;2023-02-03T00:18:43;94714.53;;;21.95;43.39
65127;BME280;51927;49.080;19.652;2023-02-03T00:18:48;94714.53;;;21.95;43.42
65127;BME280;51927;49.080;19.652;2023-02-03T00:18:53;94711.84;;;21.95;43.53
65127;BME280;51927;49.080;19.652;2023-02-03T00:18:58;94717.97;;;21.96;43.53
65127;BME280;51927;49.080;19.652;2023-02-03T00:19:03;94717.97;;;21.96;43.28
65127;BME280;51927;49.080;19.652;2023-02-03T00:19:09;94713.72;;;21.95;43.41
65127;BME280;51927;49.080;19.652;2023-02-03T00:19:14;94712.63;;;21.96;43.28
65127;BME280;51927;49.080;19.652;2023-02-03T00:19:19;94711.84;;;21.95;43.38
65127;BME280;51927;49.080;19.652;2023-02-03T00:19:24;94716.38;;;21.95;43.26
65127;BME280;51927;49.080;19.652;2023-02-03T00:19:29;94715.59;;;21.94;43.41
65127;BME280;51927;49.080;19.652;2023-02-03T00:19:35;94716.38;;;21.95;43.38
65127;BME280;51927;49.080;19.652;2023-02-03T00:19:40;94707.59;;;21.94;43.33
65127;BME280;51927;49.080;19.652;2023-02-03T00:19:45;94708.38;;;21.95;43.47
65127;BME280;51927;49.080;19.652;2023-02-03T00:19:50;94715.59;;;21.94;43.24
65127;BME280;51927;49.080;19.652;2023-02-03T00:19:55;94711.03;;;21.95;43.38
65127;BME280;51927;49.080;19.652;2023-02-03T00:20:00;94713.72;;;21.95;43.51
65127;BME280;51927;49.080;19.652;2023-02-03T00:20:06;94706.53;;;21.95;43.25
65127;BME280;51927;49.080;19.652;2023-02-03T00:20:11;94711.84;;;21.95;43.42
65127;BME280;51927;49.080;19.652;2023-02-03T00:20:16;94704.94;;;21.94;43.29
65127;BME280;51927;49.080;19.652;2023-02-03T00:20:22;94707.59;;;21.94;43.26
65127;BME280;51927;49.080;19.652;2023-02-03T00:20:27;94703.06;;;21.95;43.19
65127;BME280;51927;49.080;19.652;2023-02-03T00:20:32;94707.59;;;21.94;43.19
65127;BME280;51927;49.080;19.652;2023-02-03T00:20:37;94710.28;;;21.94;43.42
65127;BME280;51927;49.080;19.652;2023-02-03T00:20:43;94701.50;;;21.94;43.49
65127;BME280;51927;49.080;19.652;2023-02-03T00:20:48;94707.59;;;21.94;43.45
65127;BME280;51927;49.080;19.652;2023-02-03T00:20:53;94704.94;;;21.94;43.29
65127;BME280;51927;49.080;19.652;2023-02-03T00:20:58;94708.38;;;21.95;43.25
65127;BME280;51927;49.080;19.652;2023-02-03T00:21:04;94703.84;;;21.95;43.29
65127;BME280;51927;49.080;19.652;2023-02-03T00:21:09;94703.84;;;21.95;43.35
65127;BME280;51927;49.080;19.652;2023-02-03T00:21:14;94706.53;;;21.95;43.41
65127;BME280;51927;49.080;19.652;2023-02-03T00:21:20;94705.72;;;21.95;43.44
65127;BME280;51927;49.080;19.652;2023-02-03T00:21:25;94711.84;;;21.95;43.46
65127;BME280;51927;49.080;19.652;2023-02-03T00:21:30;94708.38;;;21.95;43.29
65127;BME280;51927;49.080;19.652;2023-02-03T00:21:35;94705.72;;;21.95;43.45
65127;BME280;51927;49.080;19.652;2023-02-03T00:21:40;94706.53;;;21.95;43.41
65127;BME280;51927;49.080;19.652;2023-02-03T00:21:46;94704.94;;;21.94;43.35
65127;BME280;51927;49.080;19.652;2023-02-03T00:21:51;94700.38;;;21.95;43.27
65127;BME280;51927;49.080;19.652;2023-02-03T00:21:56;94701.19;;;21.95;43.47
65127;BME280;51927;49.080;19.652;2023-02-03T00:22:01;94705.72;;;21.95;43.42
65127;BME280;51927;49.080;19.652;2023-02-03T00:22:06;94700.38;;;21.95;43.34
65127;BME280;51927;49.080;19.652;2023-02-03T00:22:12;94703.06;;;21.95;43.32
65127;BME280;51927;49.080;19.652;2023-02-03T00:22:17;94706.53;;;21.95;43.38
65127;BME280;51927;49.080;19.652;2023-02-03T00:22:22;94709.97;;;21.96;43.48
65127;BME280;51927;49.080;19.652;2023-02-03T00:22:27;94705.72;;;21.95;43.28
65127;BME280;51927;49.080;19.652;2023-02-03T00:22:32;94709.19;;;21.95;43.42
65127;BME280;51927;49.080;19.652;2023-02-03T00:22:38;94707.31;;;21.96;43.35
65127;BME280;51927;49.080;19.652;2023-02-03T00:22:43;94709.97;;;21.96;43.64
65127;BME280;51927;49.080;19.652;2023-02-03T00:22:48;94707.31;;;21.96;43.29
65127;BME280;51927;49.080;19.652;2023-02-03T00:22:53;94706.53;;;21.95;43.38
65127;BME280;51927;49.080;19.652;2023-02-03T00:23:17;94698.53;;;21.95;43.25
65127;BME280;51927;49.080;19.652;2023-02-03T00:23:22;94705.72;;;21.95;43.25
65127;BME280;51927;49.080;19.652;2023-02-03T00:23:27;94708.38;;;21.95;43.50
65127;BME280;51927;49.080;19.652;2023-02-03T00:23:35;94705.72;;;21.95;43.54
65127;BME280;51927;49.080;19.652;2023-02-03T00:23:41;94707.31;;;21.96;43.46
65127;BME280;51927;49.080;19.652;2023-02-03T00:23:46;94705.72;;;21.95;43.35
65127;BME280;51927;49.080;19.652;2023-02-03T00:23:51;94706.53;;;21.95;43.41
65127;BME280;51927;49.080;19.652;2023-02-03T00:23:58;94708.38;;;21.95;43.34
65127;BME280;51927;49.080;19.652;2023-02-03T00:24:03;94705.72;;;21.95;43.42
65127;BME280;51927;49.080;19.652;2023-02-03T00:24:09;94708.38;;;21.95;43.29
65127;BME280;51927;49.080;19.652;2023-02-03T00:24:14;94712.63;;;21.96;43.51
65127;BME280;51927;49.080;19.652;2023-02-03T00:24:19;94705.72;;;21.95;43.11
65127;BME280;51927;49.080;19.652;2023-02-03T00:24:27;94707.31;;;21.96;43.32
65127;BME280;51927;49.080;19.652;2023-02-03T00:24:32;94708.38;;;21.95;43.26
65127;BME280;51927;49.080;19.652;2023-02-03T00:24:37;94707.59;;;21.94;43.52
65127;BME280;51927;49.080;19.652;2023-02-03T00:24:42;94709.19;;;21.95;43.32
65127;BME280;51927;49.080;19.652;2023-02-03T00:24:48;94705.72;;;21.95;43.39
65127;BME280;51927;49.080;19.652;2023-02-03T00:24:53;94709.19;;;21.95;43.51
65127;BME280;51927;49.080;19.652;2023-02-03T00:24:58;94707.31;;;21.96;43.40
65127;BME280;51927;49.080;19.652;2023-02-03T00:25:04;94704.16;;;21.94;43.43
65127;BME280;51927;49.080;19.652;2023-02-03T00:25:09;94705.72;;;21.95;43.47
65127;BME280;51927;49.080;19.652;2023-02-03T00:25:14;94704.94;;;21.94;43.25
65127;BME280;51927;49.080;19.652;2023-02-03T00:25:20;94712.94;;;21.94;43.44
65127;BME280;51927;49.080;19.652;2023-02-03T00:25:25;94706.53;;;21.95;43.33
65127;BME280;51927;49.080;19.652;2023-02-03T00:25:30;94707.59;;;21.94;43.41
65127;BME280;51927;49.080;19.652;2023-02-03T00:25:36;94707.59;;;21.94;43.44
65127;BME280;51927;49.080;19.652;2023-02-03T00:25:41;94709.19;;;21.95;43.42
65127;BME280;51927;49.080;19.652;2023-02-03T00:25:46;94715.59;;;21.94;43.35
65127;BME280;51927;49.080;19.652;2023-02-03T00:25:51;94713.72;;;21.95;43.53
65127;BME280;51927;49.080;19.652;2023-02-03T00:26:05;94711.03;;;21.95;43.48
65127;BME280;51927;49.080;19.652;2023-02-03T00:26:14;94708.38;;;21.95;43.66
65127;BME280;51927;49.080;19.652;2023-02-03T00:26:19;94703.06;;;21.95;43.70
65127;BME280;51927;49.080;19.652;2023-02-03T00:26:24;94711.03;;;21.95;43.48
65127;BME280;51927;49.080;19.652;2023-02-03T00:26:32;94703.06;;;21.95;43.37
65127;BME280;51927;49.080;19.652;2023-02-03T00:26:41;94707.59;;;21.94;43.51
65127;BME280;51927;49.080;19.652;2023-02-03T00:26:46;94703.06;;;21.95;43.41
65127;BME280;51927;49.080;19.652;2023-02-03T00:26:51;94704.16;;;21.94;43.42
65127;BME280;51927;49.080;19.652;2023-02-03T00:26:57;94704.16;;;21.94;43.48
65127;BME280;51927;49.080;19.652;2023-02-03T00:27:02;94701.50;;;21.94;43.53
65127;BME280;51927;49.080;19.652;2023-02-03T00:27:07;94703.34;;;21.93;43.28
65127;BME280;51927;49.080;19.652;2023-02-03T00:27:12;94706.00;;;21.93;43.29
65127;BME280;51927;49.080;19.652;2023-02-03T00:27:18;94706.81;;;21.94;43.26
65127;BME280;51927;49.080;19.652;2023-02-03T00:27:23;94709.50;;;21.94;43.47
65127;BME280;51927;49.080;19.652;2023-02-03T00:27:28;94710.56;;;21.93;43.36
65127;BME280;51927;49.080;19.652;2023-02-03T00:27:33;94710.28;;;21.94;43.54
65127;BME280;51927;49.080;19.652;2023-02-03T00:27:39;94711.34;;;21.93;43.63
65127;BME280;51927;49.080;19.652;2023-02-03T00:27:44;94705.22;;;21.93;43.38
65127;BME280;51927;49.080;19.652;2023-02-03T00:27:49;94705.22;;;21.93;43.36
65127;BME280;51927;49.080;19.652;2023-02-03T00:27:54;94703.66;;;21.92;43.49
65127;BME280;51927;49.080;19.652;2023-02-03T00:27:59;94710.56;;;21.93;43.53
65127;BME280;51927;49.080;19.652;2023-02-03T00:28:05;94707.91;;;21.93;43.50
65127;BME280;51927;49.080;19.652;2023-02-03T00:28:10;94707.91;;;21.93;43.39
65127;BME280;51927;49.080;19.652;2023-02-03T00:28:15;94707.91;;;21.93;43.48
65127;BME280;51927;49.080;19.652;2023-02-03T00:28:20;94705.22;;;21.93;43.34
65127;BME280;51927;49.080;19.652;2023-02-03T00:28:27;94711.34;;;21.93;43.41
65127;BME280;51927;49.080;19.652;2023-02-03T00:28:32;94707.91;;;21.93;43.39
65127;BME280;51927;49.080;19.652;2023-02-03T00:28:38;94707.91;;;21.93;43.47
65127;BME280;51927;49.080;19.652;2023-02-03T00:28:43;94713.22;;;21.93;43.29
65127;BME280;51927;49.080;19.652;2023-02-03T00:28:48;94704.16;;;21.94;43.43
65127;BME280;51927;49.080;19.652;2023-02-03T00:28:53;94715.13;;;21.92;43.38